Time;durP1;ratioP1;P1;durP2;ratioP2;P2;SDS_P1;SDS_P2;PMS_P1;PMS_P2;Temp;Humidity;BMP_temperature;BMP_pressure;BME280_temperature;BME280_humidity;BME280_pressure;Samples;Min_cycle;Max_cycle;Signal;HPM_P1;HPM_P2
2021/12/01 00:00:56;;;;;;;87.57;39.80;;;8.50;99.90;;;;;;5049304;28;20052;-72
2021/12/01 00:03:22;;;;;;;83.47;40.80;;;8.50;99.90;;;;;;5055491;28;20051;-72
2021/12/01 00:05:48;;;;;;;77.25;37.65;;;8.60;99.90;;;;;;5046721;28;20492;-72
2021/12/01 00:08:14;;;;;;;71.88;36.28;;;8.60;99.90;;;;;;5048910;28;20049;-72
2021/12/01 00:10:41;;;;;;;73.20;37.70;;;8.70;99.90;;;;;;5050560;28;20410;-73
2021/12/01 00:13:13;;;;;;;76.78;38.38;;;8.70;99.90;;;;;;5049245;28;20118;-73
2021/12/01 00:15:40;;;;;;;65.25;35.92;;;8.70;99.90;;;;;;5050096;28;20045;-73
2021/12/01 00:18:06;;;;;;;73.27;36.77;;;8.70;99.90;;;;;;5049746;28;20049;-73
2021/12/01 00:20:31;;;;;;;72.13;38.15;;;8.70;99.90;;;;;;5055115;28;20049;-73
2021/12/01 00:22:59;;;;;;;69.65;37.42;;;8.80;99.90;;;;;;5043181;28;20510;-73
2021/12/01 00:25:26;;;;;;;71.10;38.63;;;8.80;99.90;;;;;;5043394;28;20506;-73
2021/12/01 00:27:53;;;;;;;79.72;39.97;;;8.80;99.90;;;;;;5057137;28;20467;-73
2021/12/01 00:30:20;;;;;;;72.13;37.30;;;8.80;99.90;;;;;;5048011;28;20041;-73
2021/12/01 00:32:46;;;;;;;63.88;37.38;;;8.80;99.90;;;;;;5060252;28;20037;-73
2021/12/01 00:35:12;;;;;;;71.80;39.22;;;8.90;99.90;;;;;;5051293;28;20116;-73
2021/12/01 00:37:39;;;;;;;58.55;38.65;;;8.90;99.90;;;;;;5050396;28;20127;-73
2021/12/01 00:40:07;;;;;;;65.70;40.92;;;8.90;99.90;;;;;;5046279;28;20057;-73
2021/12/01 00:42:33;;;;;;;75.28;41.08;;;8.90;99.90;;;;;;5048996;28;20049;-73
2021/12/01 00:45:06;;;;;;;76.47;42.22;;;8.90;99.90;;;;;;5049359;28;20102;-73
2021/12/01 00:47:46;;;;;;;72.55;40.95;;;8.90;99.90;;;;;;5048516;28;20052;-73
2021/12/01 00:50:16;;;;;;;91.75;43.78;;;8.90;99.90;;;;;;5043313;28;20230;-73
2021/12/01 00:52:42;;;;;;;69.55;39.70;;;8.90;99.90;;;;;;5051253;28;20128;-73
2021/12/01 00:55:08;;;;;;;70.47;39.78;;;9.00;99.90;;;;;;5049289;28;20147;-73
2021/12/01 00:57:34;;;;;;;71.18;40.00;;;9.00;99.90;;;;;;5043013;28;20498;-73
2021/12/01 01:00:01;;;;;;;65.65;38.65;;;8.90;99.90;;;;;;5045185;28;20045;-73
2021/12/01 01:02:26;;;;;;;70.25;40.65;;;9.00;99.90;;;;;;5045515;28;20071;-73
2021/12/01 01:04:52;;;;;;;65.18;37.90;;;9.00;99.90;;;;;;5053980;28;20049;-73
2021/12/01 01:07:18;;;;;;;69.07;39.33;;;9.00;99.90;;;;;;5047888;28;20130;-73
2021/12/01 01:09:44;;;;;;;70.43;39.35;;;9.00;99.90;;;;;;5050768;28;20052;-73
2021/12/01 01:18:05;;;;;;;60.03;37.15;;;9.10;99.90;;;;;;5028372;28;20049;-73
2021/12/01 01:20:32;;;;;;;60.90;37.28;;;9.10;99.90;;;;;;5046035;28;20647;-73
2021/12/01 01:22:57;;;;;;;69.25;39.17;;;9.10;99.90;;;;;;5039759;28;20152;-73
2021/12/01 01:25:23;;;;;;;62.83;39.95;;;9.10;99.90;;;;;;5036948;28;20049;-73
2021/12/01 01:27:50;;;;;;;68.70;38.25;;;9.10;99.90;;;;;;5051085;28;20053;-73
2021/12/01 01:30:16;;;;;;;57.35;35.67;;;9.10;99.90;;;;;;5048723;28;20053;-74
2021/12/01 01:32:42;;;;;;;59.58;36.80;;;9.10;99.90;;;;;;5049721;28;20043;-73
2021/12/01 01:35:08;;;;;;;63.47;38.95;;;9.10;99.90;;;;;;5051204;28;20049;-73
2021/12/01 01:37:34;;;;;;;72.38;38.05;;;9.10;99.90;;;;;;5047728;28;20076;-73
2021/12/01 01:39:59;;;;;;;68.50;38.47;;;9.10;99.90;;;;;;5043399;28;20072;-73
2021/12/01 01:42:25;;;;;;;77.03;40.95;;;9.10;99.90;;;;;;5047728;28;20052;-72
2021/12/01 01:44:50;;;;;;;64.60;39.92;;;9.10;99.90;;;;;;5048662;28;20052;-72
2021/12/01 01:47:16;;;;;;;70.57;37.50;;;9.10;99.90;;;;;;5047739;28;20482;-72
2021/12/01 01:49:54;;;;;;;79.30;37.33;;;9.10;99.90;;;;;;5042287;28;20075;-72
2021/12/01 01:52:20;;;;;;;56.28;33.55;;;9.10;99.90;;;;;;5045349;28;20481;-72
2021/12/01 01:54:46;;;;;;;58.08;34.15;;;9.10;99.90;;;;;;5049333;28;20053;-72
2021/12/01 01:57:13;;;;;;;53.15;32.50;;;9.10;99.90;;;;;;5061407;28;20159;-73
2021/12/01 01:59:39;;;;;;;55.15;34.55;;;9.10;99.90;;;;;;5047568;28;20474;-72
2021/12/01 02:02:04;;;;;;;55.15;31.65;;;9.10;99.90;;;;;;5045907;28;20130;-72
2021/12/01 02:04:33;;;;;;;62.05;33.25;;;9.10;99.90;;;;;;5051773;28;20068;-72
2021/12/01 02:07:01;;;;;;;54.47;29.95;;;9.10;99.90;;;;;;5049228;28;20490;-72
2021/12/01 02:09:27;;;;;;;49.05;28.13;;;9.10;99.90;;;;;;5043206;28;20112;-72
2021/12/01 02:11:56;;;;;;;49.90;29.27;;;9.20;99.90;;;;;;5053590;28;20190;-72
2021/12/01 02:14:22;;;;;;;52.10;28.92;;;9.20;99.90;;;;;;5049083;28;20075;-72
2021/12/01 02:16:49;;;;;;;47.25;26.85;;;9.20;99.90;;;;;;5054158;28;20077;-72
2021/12/01 02:19:15;;;;;;;44.60;25.35;;;9.20;99.90;;;;;;5046875;28;20064;-72
2021/12/01 02:21:41;;;;;;;46.80;26.92;;;9.20;99.90;;;;;;5046537;28;20522;-72
2021/12/01 02:24:14;;;;;;;44.63;26.05;;;9.20;99.90;;;;;;5050973;28;20129;-72
2021/12/01 02:26:46;;;;;;;45.53;24.40;;;9.20;99.90;;;;;;5045789;28;20053;-73
2021/12/01 02:29:19;;;;;;;39.17;21.95;;;9.20;99.90;;;;;;5053224;28;20053;-72
2021/12/01 02:31:47;;;;;;;30.98;18.63;;;9.30;99.90;;;;;;5051056;28;20049;-72
2021/12/01 02:34:17;;;;;;;33.63;18.60;;;9.20;99.90;;;;;;5054098;28;20136;-72
2021/12/01 02:36:48;;;;;;;29.63;17.75;;;9.30;99.90;;;;;;5056049;28;20493;-72
2021/12/01 02:39:16;;;;;;;31.17;18.38;;;9.30;99.90;;;;;;5042502;28;20045;-72
2021/12/01 02:41:43;;;;;;;35.00;20.13;;;9.30;99.90;;;;;;5051134;28;20045;-72
2021/12/01 02:44:11;;;;;;;30.67;17.67;;;9.30;99.90;;;;;;5053691;28;20842;-72
2021/12/01 02:46:37;;;;;;;32.65;17.35;;;9.30;99.90;;;;;;5048915;28;20044;-72
2021/12/01 02:49:04;;;;;;;29.45;16.23;;;9.30;99.90;;;;;;5050819;28;20056;-72
2021/12/01 02:51:32;;;;;;;26.38;15.13;;;9.30;99.90;;;;;;5048014;28;20052;-73
2021/12/01 02:53:59;;;;;;;24.70;14.68;;;9.30;99.90;;;;;;5055878;28;20048;-73
2021/12/01 02:56:27;;;;;;;23.98;13.43;;;9.30;99.90;;;;;;5047696;28;20041;-72
2021/12/01 02:58:53;;;;;;;;;;;9.30;99.90;;;;;;5054056;28;20053;-72
2021/12/01 03:01:22;;;;;;;23.40;13.65;;;9.30;99.90;;;;;;5049973;28;19928;-72
2021/12/01 03:03:49;;;;;;;20.98;12.35;;;9.30;99.90;;;;;;5040356;28;20053;-72
2021/12/01 03:06:17;;;;;;;19.00;12.15;;;9.40;99.90;;;;;;5051687;28;20132;-72
2021/12/01 03:08:45;;;;;;;16.45;10.95;;;9.40;99.90;;;;;;5057557;28;20044;-72
2021/12/01 03:11:12;;;;;;;15.75;10.50;;;9.40;99.90;;;;;;5050498;28;20049;-72
2021/12/01 03:13:39;;;;;;;17.40;10.30;;;9.40;99.90;;;;;;5046941;28;20719;-73
2021/12/01 03:16:05;;;;;;;17.70;9.93;;;9.40;99.90;;;;;;5051888;28;20417;-73
2021/12/01 03:18:31;;;;;;;12.73;6.90;;;9.40;99.90;;;;;;5049049;28;20044;-73
2021/12/01 03:20:57;;;;;;;10.70;7.50;;;9.40;99.90;;;;;;5050041;28;20128;-73
2021/12/01 03:23:24;;;;;;;10.80;7.10;;;9.50;99.90;;;;;;5052826;28;20037;-73
2021/12/01 03:25:49;;;;;;;9.52;7.07;;;9.50;99.90;;;;;;5051890;28;20047;-73
2021/12/01 03:28:16;;;;;;;9.23;6.25;;;9.50;99.90;;;;;;5058960;28;20044;-72
2021/12/01 03:30:42;;;;;;;9.10;5.88;;;9.50;99.90;;;;;;5053150;28;20076;-73
2021/12/01 03:33:11;;;;;;;10.13;5.80;;;9.50;99.90;;;;;;5033937;28;20045;-73
2021/12/01 03:35:39;;;;;;;9.63;5.50;;;9.40;99.90;;;;;;5048002;28;20080;-72
2021/12/01 03:38:05;;;;;;;6.88;4.97;;;9.50;99.90;;;;;;5040203;28;20060;-72
2021/12/01 03:40:31;;;;;;;10.38;4.93;;;9.50;99.90;;;;;;5052106;28;20090;-72
2021/12/01 03:42:57;;;;;;;15.30;5.45;;;9.50;99.90;;;;;;5052532;28;20060;-72
2021/12/01 03:45:22;;;;;;;7.35;5.22;;;9.50;99.90;;;;;;5052123;28;20157;-72
2021/12/01 03:47:48;;;;;;;6.65;4.97;;;9.50;99.90;;;;;;5046768;28;20127;-73
2021/12/01 03:50:14;;;;;;;7.40;5.03;;;9.50;99.90;;;;;;5049586;28;20085;-73
2021/12/01 03:52:40;;;;;;;10.02;5.20;;;9.50;99.90;;;;;;5032211;28;20133;-72
2021/12/01 03:55:07;;;;;;;8.80;5.82;;;9.50;99.90;;;;;;5048889;28;20127;-72
2021/12/01 03:57:34;;;;;;;12.18;6.10;;;9.40;99.90;;;;;;5033404;28;20051;-73
2021/12/01 04:00:00;;;;;;;11.57;6.90;;;9.40;99.90;;;;;;5049764;28;20045;-73
2021/12/01 04:02:26;;;;;;;19.73;7.45;;;9.40;99.90;;;;;;5048717;28;20071;-72
2021/12/01 04:04:52;;;;;;;10.40;6.43;;;9.40;99.90;;;;;;5049203;28;20127;-72
2021/12/01 04:07:18;;;;;;;11.70;6.45;;;9.40;99.90;;;;;;5050010;28;20048;-72
2021/12/01 04:09:45;;;;;;;12.48;6.68;;;9.40;99.90;;;;;;5049051;28;20045;-73
2021/12/01 04:12:11;;;;;;;7.70;5.90;;;9.40;99.90;;;;;;5053427;28;20517;-73
2021/12/01 04:14:37;;;;;;;15.30;6.40;;;9.40;99.90;;;;;;5049892;28;20485;-72
2021/12/01 04:17:04;;;;;;;16.10;5.88;;;9.40;99.90;;;;;;5038948;28;20468;-72
2021/12/01 04:19:30;;;;;;;7.55;5.38;;;9.40;99.90;;;;;;5054676;28;20044;-72
2021/12/01 04:21:57;;;;;;;8.77;5.25;;;9.40;99.90;;;;;;5052022;28;20052;-72
2021/12/01 04:24:22;;;;;;;9.00;6.05;;;9.40;99.90;;;;;;5046195;28;20072;-72
2021/12/01 04:26:48;;;;;;;10.05;6.32;;;9.40;99.90;;;;;;5041979;28;20124;-72
2021/12/01 04:29:14;;;;;;;10.95;6.55;;;9.40;99.90;;;;;;5046684;28;20047;-73
2021/12/01 04:31:40;;;;;;;8.70;6.13;;;9.40;99.90;;;;;;5047418;28;20049;-73
2021/12/01 04:34:07;;;;;;;14.57;7.40;;;9.40;99.90;;;;;;5046227;28;20536;-72
2021/12/01 04:36:37;;;;;;;11.00;6.30;;;9.40;99.90;;;;;;5048867;28;20041;-72
2021/12/01 04:39:05;;;;;;;10.20;6.72;;;9.30;99.90;;;;;;5049589;28;20530;-73
2021/12/01 04:41:36;;;;;;;;;;;9.40;99.90;;;;;;5051243;28;20056;-72
2021/12/01 04:44:08;;;;;;;13.13;6.65;;;9.30;99.90;;;;;;5044742;28;19921;-72
2021/12/01 04:46:40;;;;;;;9.77;6.70;;;9.30;99.90;;;;;;5042240;28;20111;-72
2021/12/01 04:49:06;;;;;;;11.88;7.32;;;9.30;99.90;;;;;;5047971;28;20080;-72
2021/12/01 04:51:32;;;;;;;9.80;6.65;;;9.30;99.90;;;;;;5049931;28;20064;-72
2021/12/01 04:53:59;;;;;;;9.00;6.50;;;9.30;99.90;;;;;;5047587;28;20045;-73
2021/12/01 04:56:25;;;;;;;9.50;6.22;;;9.30;99.90;;;;;;5050587;28;20049;-72
2021/12/01 04:58:50;;;;;;;7.57;6.30;;;9.30;99.90;;;;;;5052923;28;20177;-72
2021/12/01 05:01:17;;;;;;;7.68;5.97;;;9.30;99.90;;;;;;5052432;28;20124;-72
2021/12/01 05:03:43;;;;;;;7.60;5.97;;;9.30;99.90;;;;;;5050151;28;20033;-72
2021/12/01 05:06:12;;;;;;;6.85;5.72;;;9.30;99.90;;;;;;5047523;28;20106;-73
2021/12/01 05:08:38;;;;;;;6.50;5.25;;;9.20;99.90;;;;;;5054756;28;20055;-73
2021/12/01 05:11:03;;;;;;;9.88;6.18;;;9.20;99.90;;;;;;5046557;28;20099;-72
2021/12/01 05:13:29;;;;;;;8.50;6.35;;;9.20;99.90;;;;;;5050234;28;20418;-73
2021/12/01 05:15:55;;;;;;;6.68;5.22;;;9.20;99.90;;;;;;5048609;28;20061;-73
2021/12/01 05:18:21;;;;;;;6.10;4.63;;;9.20;99.90;;;;;;5052022;28;20045;-73
2021/12/01 05:20:46;;;;;;;7.25;5.15;;;9.20;99.90;;;;;;5053160;28;20059;-73
2021/12/01 05:23:15;;;;;;;7.72;5.00;;;9.20;99.90;;;;;;5052778;28;20040;-72
2021/12/01 05:25:43;;;;;;;4.50;3.80;;;9.20;99.90;;;;;;5050937;28;20053;-73
2021/12/01 05:28:08;;;;;;;6.25;4.32;;;9.20;99.90;;;;;;5044742;28;20080;-73
2021/12/01 05:30:34;;;;;;;5.20;4.28;;;9.10;99.90;;;;;;5048922;28;20075;-73
2021/12/01 05:33:05;;;;;;;5.95;4.72;;;9.10;99.90;;;;;;5051176;28;20040;-73
2021/12/01 05:35:31;;;;;;;6.07;4.55;;;9.10;99.90;;;;;;5050090;28;20123;-73
2021/12/01 05:37:57;;;;;;;4.28;3.85;;;9.10;99.90;;;;;;5043856;28;20045;-73
2021/12/01 05:40:23;;;;;;;6.22;4.60;;;9.10;99.90;;;;;;5048142;28;20048;-73
2021/12/01 05:42:49;;;;;;;6.30;4.45;;;9.00;99.90;;;;;;5051460;28;20052;-73
2021/12/01 05:45:15;;;;;;;4.72;4.22;;;9.10;99.90;;;;;;5046222;28;20048;-73
2021/12/01 05:47:41;;;;;;;5.78;4.18;;;9.00;99.90;;;;;;5048632;28;20049;-73
2021/12/01 05:50:07;;;;;;;5.18;4.47;;;9.00;99.90;;;;;;5048620;28;20839;-73
2021/12/01 05:52:32;;;;;;;5.00;4.50;;;9.00;99.90;;;;;;5044797;28;20057;-73
2021/12/01 05:54:58;;;;;;;5.65;5.05;;;9.00;99.90;;;;;;5044380;28;20045;-72
2021/12/01 05:57:24;;;;;;;4.65;4.07;;;8.90;99.90;;;;;;5046455;28;20589;-72
2021/12/01 05:59:49;;;;;;;6.72;4.60;;;8.90;99.90;;;;;;5048485;28;20045;-72
2021/12/01 06:02:15;;;;;;;4.95;4.07;;;8.90;99.90;;;;;;5047261;28;20405;-72
2021/12/01 06:04:41;;;;;;;5.82;4.55;;;8.90;99.90;;;;;;5041177;28;20045;-72
2021/12/01 06:07:07;;;;;;;6.20;4.43;;;8.90;99.90;;;;;;5051701;28;20565;-72
2021/12/01 06:09:32;;;;;;;5.65;3.95;;;8.90;99.90;;;;;;5046802;28;20073;-72
2021/12/01 06:11:58;;;;;;;4.03;3.42;;;8.80;99.90;;;;;;5052799;28;20084;-73
2021/12/01 06:14:24;;;;;;;5.43;3.90;;;8.80;99.90;;;;;;5050395;28;20406;-72
2021/12/01 06:16:50;;;;;;;5.90;3.70;;;8.80;99.90;;;;;;5051570;28;20047;-73
2021/12/01 06:19:15;;;;;;;4.07;3.67;;;8.80;99.90;;;;;;5054165;28;20045;-72
2021/12/01 06:21:41;;;;;;;4.30;3.45;;;8.80;99.90;;;;;;5053152;28;20045;-72
2021/12/01 06:24:07;;;;;;;6.00;4.03;;;8.80;99.90;;;;;;5051171;28;20041;-72
2021/12/01 06:26:33;;;;;;;3.95;3.50;;;8.70;99.90;;;;;;5057012;28;20094;-72
2021/12/01 06:28:58;;;;;;;4.55;3.90;;;8.70;99.90;;;;;;5048020;28;20069;-72
2021/12/01 06:31:24;;;;;;;4.03;3.60;;;8.70;99.90;;;;;;5051445;28;20041;-72
2021/12/01 06:33:50;;;;;;;4.88;4.13;;;8.70;99.90;;;;;;5062913;28;20055;-72
2021/12/01 06:36:15;;;;;;;4.10;3.50;;;8.70;99.90;;;;;;5048704;28;20047;-72
2021/12/01 06:38:41;;;;;;;5.22;4.38;;;8.70;99.90;;;;;;5052222;28;20079;-72
2021/12/01 06:41:08;;;;;;;3.80;3.47;;;8.70;99.90;;;;;;5050824;28;20163;-72
2021/12/01 06:43:34;;;;;;;5.07;3.60;;;8.70;99.90;;;;;;5056367;28;20061;-72
2021/12/01 06:46:00;;;;;;;5.78;3.90;;;8.70;99.90;;;;;;5055074;28;20041;-72
2021/12/01 06:48:25;;;;;;;4.30;3.90;;;8.70;99.90;;;;;;5049947;28;20047;-72
2021/12/01 06:50:51;;;;;;;5.60;4.05;;;8.70;99.90;;;;;;5049681;28;20052;-73
2021/12/01 06:53:17;;;;;;;5.25;4.47;;;8.70;99.90;;;;;;5051960;28;20065;-72
2021/12/01 06:55:43;;;;;;;5.20;4.55;;;8.70;99.90;;;;;;5053595;28;20115;-72
2021/12/01 06:58:09;;;;;;;3.95;3.55;;;8.60;99.90;;;;;;5045598;28;20076;-73
2021/12/01 07:00:35;;;;;;;4.28;3.88;;;8.60;99.90;;;;;;5050580;28;20053;-72
2021/12/01 07:03:01;;;;;;;5.93;4.47;;;8.60;99.90;;;;;;5056072;28;20056;-73
2021/12/01 07:05:27;;;;;;;4.40;4.00;;;8.60;99.90;;;;;;5056149;28;20723;-73
2021/12/01 07:07:53;;;;;;;5.53;4.97;;;8.60;99.90;;;;;;5050983;28;20049;-72
2021/12/01 07:10:19;;;;;;;6.20;4.32;;;8.60;99.90;;;;;;5053395;28;20045;-73
2021/12/01 07:12:44;;;;;;;4.47;4.07;;;8.60;99.90;;;;;;5051981;28;20049;-72
2021/12/01 07:15:12;;;;;;;5.22;4.55;;;8.60;99.90;;;;;;5051590;28;20739;-72
2021/12/01 07:17:38;;;;;;;4.67;4.17;;;8.60;99.90;;;;;;5054548;28;20052;-73
2021/12/01 07:20:05;;;;;;;5.60;5.00;;;8.60;99.90;;;;;;5048670;28;20045;-73
2021/12/01 07:22:30;;;;;;;5.25;4.43;;;8.60;99.90;;;;;;5049153;28;20059;-72
2021/12/01 07:24:56;;;;;;;4.43;4.03;;;8.60;99.90;;;;;;5049154;28;20049;-72
2021/12/01 07:27:23;;;;;;;4.53;3.70;;;8.50;99.90;;;;;;5048092;28;20106;-72
2021/12/01 07:29:48;;;;;;;4.63;4.05;;;8.50;99.90;;;;;;5050734;28;20056;-73
2021/12/01 07:32:14;;;;;;;5.13;4.32;;;8.50;99.90;;;;;;5048676;28;20051;-72
2021/12/01 07:34:43;;;;;;;5.15;4.57;;;8.50;99.90;;;;;;5048571;28;20123;-72
2021/12/01 07:37:09;;;;;;;;;;;8.50;99.90;;;;;;5049840;28;20044;-71
2021/12/01 07:39:35;;;;;;;8.77;3.95;;;8.50;99.90;;;;;;5050406;28;19920;-73
2021/12/01 07:42:01;;;;;;;5.60;4.63;;;8.50;99.90;;;;;;5053546;28;20466;-72
2021/12/01 07:44:26;;;;;;;5.35;4.53;;;8.50;99.90;;;;;;5048369;28;20037;-72
2021/12/01 07:46:52;;;;;;;6.72;4.32;;;8.50;99.90;;;;;;5047695;28;20055;-73
2021/12/01 07:49:19;;;;;;;5.65;4.72;;;8.50;99.90;;;;;;5049653;28;20080;-73
2021/12/01 07:51:45;;;;;;;5.68;4.72;;;8.50;99.90;;;;;;5049348;28;20057;-73
2021/12/01 07:54:11;;;;;;;5.63;5.05;;;8.50;99.90;;;;;;5056268;28;20044;-72
2021/12/01 07:56:36;;;;;;;7.75;4.47;;;8.50;99.90;;;;;;5051782;28;20445;-74
2021/12/01 07:59:03;;;;;;;4.10;3.70;;;8.50;99.90;;;;;;5034682;28;20037;-73
2021/12/01 08:01:30;;;;;;;4.05;3.55;;;8.50;99.90;;;;;;5049902;28;20524;-73
2021/12/01 08:03:55;;;;;;;4.78;3.72;;;8.50;99.90;;;;;;5044645;28;20048;-73
2021/12/01 08:06:21;;;;;;;4.57;4.13;;;8.50;99.90;;;;;;5048707;28;20048;-73
2021/12/01 08:08:47;;;;;;;4.65;3.90;;;8.50;99.90;;;;;;5045589;28;20049;-73
2021/12/01 08:11:13;;;;;;;6.45;4.95;;;8.50;99.90;;;;;;5049828;28;20405;-72
2021/12/01 08:13:39;;;;;;;6.18;5.30;;;8.50;99.90;;;;;;5048783;28;20863;-72
2021/12/01 08:16:06;;;;;;;6.53;5.32;;;8.50;99.90;;;;;;5058603;28;20069;-73
2021/12/01 08:18:32;;;;;;;6.45;5.43;;;8.50;99.90;;;;;;5055795;28;20048;-72
2021/12/01 08:20:58;;;;;;;5.93;5.32;;;8.60;99.90;;;;;;5051464;28;20488;-73
2021/12/01 08:23:24;;;;;;;6.88;4.53;;;8.60;99.90;;;;;;5054858;28;20055;-73
2021/12/01 08:25:50;;;;;;;7.00;4.93;;;8.70;99.90;;;;;;5047025;28;20056;-73
2021/12/01 08:28:16;;;;;;;6.53;5.30;;;8.70;99.90;;;;;;5053517;28;20128;-72
2021/12/01 08:30:42;;;;;;;5.95;5.10;;;8.70;99.90;;;;;;5047274;28;20137;-72
2021/12/01 08:33:08;;;;;;;7.03;6.32;;;8.70;99.90;;;;;;5048566;28;20194;-73
2021/12/01 08:35:34;;;;;;;6.25;5.35;;;8.70;99.90;;;;;;5048137;28;20525;-73
2021/12/01 08:38:00;;;;;;;6.97;5.85;;;8.80;99.90;;;;;;5046515;28;20077;-72
2021/12/01 08:40:26;;;;;;;8.55;6.53;;;8.70;99.90;;;;;;5043184;28;20107;-73
2021/12/01 08:42:51;;;;;;;7.00;6.20;;;8.80;99.90;;;;;;5040608;28;20498;-72
2021/12/01 08:45:17;;;;;;;7.88;6.20;;;8.80;99.90;;;;;;5049977;28;20041;-73
2021/12/01 08:47:44;;;;;;;6.32;5.72;;;8.80;99.90;;;;;;5044097;28;20041;-73
2021/12/01 08:50:11;;;;;;;8.88;7.35;;;8.80;99.90;;;;;;5052201;28;21471;-73
2021/12/01 08:52:38;;;;;;;8.45;6.30;;;8.80;99.90;;;;;;5052368;28;20060;-77
2021/12/01 08:55:05;;;;;;;8.55;7.07;;;8.80;99.90;;;;;;5048231;28;20071;-72
2021/12/01 08:57:31;;;;;;;9.90;7.03;;;8.80;99.90;;;;;;5038493;28;20053;-73
2021/12/01 08:59:57;;;;;;;11.40;6.95;;;8.80;99.90;;;;;;5036885;28;20103;-72
2021/12/01 09:02:22;;;;;;;10.10;7.55;;;8.80;99.90;;;;;;5043777;28;20071;-73
2021/12/01 09:04:50;;;;;;;10.93;4.63;;;8.80;99.90;;;;;;5052506;28;20486;-72
2021/12/01 09:07:20;;;;;;;7.97;4.20;;;8.80;99.90;;;;;;5046243;28;20099;-73
2021/12/01 09:09:46;;;;;;;6.35;4.53;;;8.80;99.90;;;;;;5042960;28;20045;-73
2021/12/01 09:12:14;;;;;;;13.25;4.88;;;8.80;99.90;;;;;;5049233;28;20091;-73
2021/12/01 09:14:41;;;;;;;13.02;5.32;;;8.80;99.90;;;;;;5045507;28;20132;-73
2021/12/01 09:17:09;;;;;;;10.52;4.82;;;8.80;99.90;;;;;;5044885;28;20056;-73
2021/12/01 09:19:35;;;;;;;9.13;4.45;;;8.90;99.90;;;;;;5053873;28;20049;-73
2021/12/01 09:22:01;;;;;;;11.77;4.72;;;8.90;99.90;;;;;;5047517;28;20045;-73
2021/12/01 09:24:27;;;;;;;15.90;5.07;;;8.90;99.90;;;;;;5052435;28;20048;-74
2021/12/01 09:26:53;;;;;;;10.40;4.82;;;9.00;99.90;;;;;;5047229;28;20041;-74
2021/12/01 09:29:19;;;;;;;15.80;4.90;;;9.00;99.90;;;;;;5043955;28;20114;-73
2021/12/01 09:31:44;;;;;;;13.85;3.97;;;9.00;99.90;;;;;;5044637;28;20854;-73
2021/12/01 09:34:10;;;;;;;12.10;3.72;;;9.00;99.90;;;;;;5046054;28;20041;-73
2021/12/01 09:36:36;;;;;;;8.93;3.33;;;9.00;99.90;;;;;;5047088;28;20045;-73
2021/12/01 09:39:03;;;;;;;11.30;3.17;;;9.00;99.90;;;;;;5045545;28;20053;-74
2021/12/01 09:41:29;;;;;;;11.77;3.58;;;9.00;99.90;;;;;;5047688;28;20044;-74
2021/12/01 09:43:55;;;;;;;7.88;3.00;;;9.00;99.90;;;;;;5047494;28;20049;-74
2021/12/01 09:46:22;;;;;;;10.50;3.95;;;9.00;99.90;;;;;;5053266;28;20190;-74
2021/12/01 09:48:48;;;;;;;20.50;3.70;;;9.10;99.90;;;;;;5048739;28;20044;-74
2021/12/01 09:51:17;;;;;;;10.85;2.92;;;9.10;99.90;;;;;;5052773;28;20049;-74
2021/12/01 09:53:44;;;;;;;8.85;3.05;;;9.20;99.90;;;;;;5042934;28;20053;-74
2021/12/01 09:56:11;;;;;;;9.43;2.60;;;9.10;99.90;;;;;;5054207;28;20048;-74
2021/12/01 09:58:37;;;;;;;9.65;3.17;;;9.10;99.90;;;;;;5052569;28;20120;-74
2021/12/01 10:01:18;;;;;;;12.20;4.03;;;9.00;99.90;;;;;;5047541;28;20041;-74
2021/12/01 10:03:44;;;;;;;11.48;3.17;;;9.00;99.90;;;;;;5050471;28;20120;-74
2021/12/01 10:06:17;;;;;;;16.65;3.05;;;8.90;99.90;;;;;;5047420;28;20048;-73
2021/12/01 10:08:50;;;;;;;7.72;2.20;;;8.90;99.90;;;;;;5041467;28;20147;-74
2021/12/01 10:11:21;;;;;;;6.22;2.42;;;8.90;99.90;;;;;;5063899;28;20053;-73
2021/12/01 10:13:53;;;;;;;9.63;2.60;;;8.80;99.90;;;;;;5049306;28;20072;-73
2021/12/01 10:16:19;;;;;;;8.07;2.35;;;8.80;99.90;;;;;;5039366;28;20096;-73
2021/12/01 10:18:50;;;;;;;15.90;4.30;;;8.80;99.90;;;;;;5041472;28;20118;-73
2021/12/01 10:21:18;;;;;;;11.30;2.45;;;8.80;99.90;;;;;;5039130;28;20541;-73
2021/12/01 10:23:49;;;;;;;28.70;5.47;;;8.80;99.90;;;;;;5047019;28;20045;-72
2021/12/01 10:26:26;;;;;;;20.17;4.95;;;8.80;99.90;;;;;;5041763;28;20044;-73
2021/12/01 10:29:02;;;;;;;13.32;3.25;;;8.90;99.90;;;;;;5048103;28;20351;-73
2021/12/01 10:31:36;;;;;;;9.30;2.85;;;8.90;99.90;;;;;;5038736;28;20128;-73
2021/12/01 10:34:28;;;;;;;16.40;4.07;;;8.90;99.90;;;;;;5042226;28;20401;-73
2021/12/01 10:37:06;;;;;;;18.38;4.45;;;8.90;99.90;;;;;;5046747;28;20087;-74
2021/12/01 10:39:32;;;;;;;12.73;2.85;;;8.90;99.90;;;;;;5045483;28;20601;-73
2021/12/01 10:42:14;;;;;;;20.73;3.67;;;9.00;99.90;;;;;;5045982;28;20107;-73
2021/12/01 10:45:04;;;;;;;8.68;3.40;;;8.90;99.90;;;;;;5046521;28;20052;-73
2021/12/01 10:47:42;;;;;;;13.02;3.70;;;8.90;99.90;;;;;;5044220;28;20147;-73
2021/12/01 10:50:11;;;;;;;15.50;3.15;;;8.80;99.90;;;;;;5046294;28;20052;-73
2021/12/01 10:52:39;;;;;;;11.38;3.15;;;8.70;99.90;;;;;;5052628;28;20071;-73
2021/12/01 10:55:10;;;;;;;;;;;8.70;99.90;;;;;;5051307;28;20052;-73
2021/12/01 10:57:55;;;;;;;19.67;3.58;;;8.80;99.90;;;;;;5053003;28;19927;-73
2021/12/01 11:00:56;;;;;;;10.18;3.03;;;8.80;99.90;;;;;;5056660;28;20078;-73
2021/12/01 11:03:25;;;;;;;16.40;3.55;;;8.90;99.90;;;;;;5046906;28;20502;-73
2021/12/01 11:05:55;;;;;;;15.48;3.25;;;8.90;99.90;;;;;;5044914;28;20456;-73
2021/12/01 11:08:26;;;;;;;18.08;3.40;;;8.90;99.90;;;;;;5060558;28;20049;-73
2021/12/01 11:11:11;;;;;;;9.13;2.60;;;8.90;99.90;;;;;;5049892;28;20053;-73
2021/12/01 11:13:41;;;;;;;14.60;3.47;;;8.90;99.90;;;;;;5053165;28;20769;-73
2021/12/01 11:16:10;;;;;;;16.60;3.70;;;8.90;99.90;;;;;;5048782;28;20041;-73
2021/12/01 11:18:48;;;;;;;15.02;3.00;;;8.90;99.90;;;;;;5050202;28;20049;-73
2021/12/01 11:21:24;;;;;;;15.52;4.28;;;8.90;99.90;;;;;;5056762;28;20059;-73
2021/12/01 11:23:56;;;;;;;17.58;3.28;;;8.90;99.90;;;;;;5052892;28;20048;-73
2021/12/01 11:26:28;;;;;;;14.00;3.00;;;8.80;99.90;;;;;;5044776;28;20521;-73
2021/12/01 11:28:59;;;;;;;14.20;3.25;;;8.80;99.90;;;;;;5051979;28;20413;-73
2021/12/01 11:31:26;;;;;;;13.77;3.15;;;8.80;99.90;;;;;;5048189;28;20045;-73
2021/12/01 11:33:56;;;;;;;22.20;3.33;;;8.80;99.90;;;;;;5056983;28;20098;-73
2021/12/01 11:36:32;;;;;;;20.63;3.85;;;8.80;99.90;;;;;;5046146;28;20049;-73
2021/12/01 11:39:01;;;;;;;15.68;2.97;;;8.80;99.90;;;;;;5045373;28;20044;-73
2021/12/01 11:41:28;;;;;;;13.95;3.40;;;8.90;99.90;;;;;;5044917;28;20045;-74
2021/12/01 11:43:55;;;;;;;14.32;5.38;;;8.90;99.90;;;;;;5052831;28;20055;-73
2021/12/01 11:46:21;;;;;;;27.63;5.90;;;8.90;99.90;;;;;;5056711;28;20057;-73
2021/12/01 11:48:53;;;;;;;20.73;4.55;;;8.80;99.90;;;;;;5051791;28;20188;-73
2021/12/01 11:51:23;;;;;;;27.17;5.05;;;8.80;99.90;;;;;;5046774;28;20045;-72
2021/12/01 11:53:55;;;;;;;21.48;5.05;;;8.80;99.90;;;;;;5049662;28;20044;-72
2021/12/01 11:56:32;;;;;;;25.98;4.55;;;8.80;99.90;;;;;;5049151;28;20090;-73
2021/12/01 11:59:16;;;;;;;19.05;5.35;;;8.70;99.90;;;;;;5049037;28;20157;-72
2021/12/01 12:01:48;;;;;;;12.10;4.05;;;8.70;99.90;;;;;;5049075;28;20123;-72
2021/12/01 12:04:15;;;;;;;25.10;5.25;;;8.60;99.90;;;;;;5041027;28;20080;-72
2021/12/01 12:06:52;;;;;;;25.10;4.32;;;8.60;99.90;;;;;;5054487;28;20055;-72
2021/12/01 12:09:20;;;;;;;15.68;3.97;;;8.60;99.90;;;;;;5043019;28;20103;-72
2021/12/01 12:11:56;;;;;;;22.08;4.95;;;8.60;99.90;;;;;;5053698;28;20682;-72
2021/12/01 12:14:30;;;;;;;13.63;3.78;;;8.60;99.90;;;;;;5050196;28;20052;-73
2021/12/01 12:17:13;;;;;;;23.35;4.38;;;8.60;99.90;;;;;;5050665;28;20091;-73
2021/12/01 12:20:13;;;;;;;15.65;4.03;;;8.50;99.90;;;;;;5051273;28;20056;-73
2021/12/01 12:22:44;;;;;;;16.17;4.60;;;8.50;99.90;;;;;;5045436;28;20079;-73
2021/12/01 12:25:12;;;;;;;29.42;5.10;;;8.50;99.90;;;;;;5048030;28;20045;-72
2021/12/01 12:27:47;;;;;;;28.45;6.03;;;8.50;99.90;;;;;;5048053;28;20566;-73
2021/12/01 12:30:35;;;;;;;18.40;4.32;;;8.50;99.90;;;;;;5051479;28;20120;-72
2021/12/01 12:33:22;;;;;;;25.27;5.55;;;8.60;99.90;;;;;;5057538;28;20044;-72
2021/12/01 12:35:50;;;;;;;27.70;5.57;;;8.50;99.90;;;;;;5053459;28;20045;-72
2021/12/01 12:38:16;;;;;;;22.35;5.53;;;8.50;99.90;;;;;;5044216;28;20048;-73
2021/12/01 12:40:43;;;;;;;16.67;5.30;;;8.50;99.90;;;;;;5049340;28;20102;-73
2021/12/01 12:43:12;;;;;;;26.17;5.72;;;8.50;99.90;;;;;;5048161;28;20507;-72
2021/12/01 12:45:40;;;;;;;18.75;4.70;;;8.60;99.90;;;;;;5057286;28;20044;-73
2021/12/01 12:48:28;;;;;;;21.60;5.65;;;8.60;99.90;;;;;;5047405;28;20992;-73
2021/12/01 12:51:30;;;;;;;;;;;8.50;99.90;;;;;;5049914;28;20055;-72
2021/12/01 12:54:03;;;;;;;30.45;5.65;;;8.50;99.90;;;;;;5007619;28;19921;-73
2021/12/01 12:56:35;;;;;;;19.55;4.75;;;8.40;99.90;;;;;;5039656;28;20504;-73
2021/12/01 12:59:20;;;;;;;17.90;4.45;;;8.40;99.90;;;;;;5040774;28;20114;-72
2021/12/01 13:01:59;;;;;;;17.27;4.63;;;8.30;99.90;;;;;;5046543;28;20593;-73